YSB233 ZUUU-ZSSS
Flight info
| Callsign | YSB233 |
|---|---|
| Flight time | N/A |
| Altitude | 41100 |
| Route | UBRAB9W UBRAB B213 WHA R343 SASAN SAS62A |
| Aircraft | A359/H-SDE2E3GHIJ3J4J5LM1ORWXY/LB1D1 |
Departure
| Time | N/A |
|---|---|
| Airport | Chengdu Shuangliu International Airport (ZUUU) |
Arrival
| Time | 2026-05-05 12:35 |
|---|---|
| Airport | Shanghai Hongqiao International Airport (ZSSS) |
| Time | Latitude | Longitude | Altitude | Speed | Heading |
|---|---|---|---|---|---|
| 2026-05-05 12:16 | 31.51843 | 120.55786 | 5600 ft | 281 kts | 111° |
| 2026-05-05 12:16 | 31.51207 | 120.57915 | 5302 ft | 273 kts | 112° |
| 2026-05-05 12:16 | 31.50588 | 120.59985 | 5061 ft | 263 kts | 112° |
| 2026-05-05 12:16 | 31.50004 | 120.61937 | 4794 ft | 245 kts | 112° |
| 2026-05-05 12:17 | 31.49463 | 120.63750 | 4522 ft | 229 kts | 112° |
| 2026-05-05 12:17 | 31.48952 | 120.65452 | 4257 ft | 215 kts | 112° |
| 2026-05-05 12:17 | 31.48469 | 120.67064 | 4008 ft | 203 kts | 113° |
| 2026-05-05 12:17 | 31.48011 | 120.68587 | 3691 ft | 196 kts | 112° |
| 2026-05-05 12:18 | 31.47868 | 120.69064 | 3547 ft | 196 kts | 113° |
| 2026-05-05 12:18 | 31.47437 | 120.70492 | 3171 ft | 194 kts | 113° |
| 2026-05-05 12:18 | 31.46990 | 120.71969 | 2844 ft | 192 kts | 112° |
| 2026-05-05 12:18 | 31.46550 | 120.73435 | 2609 ft | 188 kts | 113° |
| 2026-05-05 12:19 | 31.46123 | 120.74855 | 2455 ft | 185 kts | 114° |
| 2026-05-05 12:19 | 31.45695 | 120.76274 | 2344 ft | 185 kts | 114° |
| 2026-05-05 12:19 | 31.45265 | 120.77700 | 2215 ft | 184 kts | 114° |
| 2026-05-05 12:19 | 31.44840 | 120.79104 | 2094 ft | 184 kts | 114° |
| 2026-05-05 12:20 | 31.44418 | 120.80511 | 2019 ft | 182 kts | 114° |
| 2026-05-05 12:20 | 31.43997 | 120.81903 | 2006 ft | 181 kts | 113° |
| 2026-05-05 12:20 | 31.43585 | 120.83271 | 2007 ft | 180 kts | 114° |
| 2026-05-05 12:20 | 31.43169 | 120.84648 | 2003 ft | 179 kts | 114° |
| 2026-05-05 12:21 | 31.42748 | 120.86039 | 2006 ft | 179 kts | 114° |
| 2026-05-05 12:21 | 31.42339 | 120.87387 | 2005 ft | 178 kts | 114° |
| 2026-05-05 12:21 | 31.41926 | 120.88758 | 2005 ft | 179 kts | 114° |
| 2026-05-05 12:21 | 31.41508 | 120.90141 | 2005 ft | 180 kts | 114° |
| 2026-05-05 12:22 | 31.41085 | 120.91538 | 2004 ft | 179 kts | 114° |
| 2026-05-05 12:22 | 31.40672 | 120.92895 | 2006 ft | 179 kts | 113° |
| 2026-05-05 12:22 | 31.40268 | 120.94298 | 2005 ft | 181 kts | 109° |
| 2026-05-05 12:22 | 31.40227 | 120.95767 | 2003 ft | 189 kts | 84° |
| 2026-05-05 12:23 | 31.40616 | 120.97250 | 2010 ft | 192 kts | 76° |
| 2026-05-05 12:23 | 31.41081 | 120.98722 | 2016 ft | 193 kts | 75° |
| 2026-05-05 12:23 | 31.41545 | 121.00191 | 2009 ft | 192 kts | 75° |
| 2026-05-05 12:23 | 31.42002 | 121.01662 | 2010 ft | 192 kts | 75° |
| 2026-05-05 12:24 | 31.42452 | 121.03136 | 2010 ft | 192 kts | 76° |
| 2026-05-05 12:24 | 31.42897 | 121.04611 | 2014 ft | 192 kts | 76° |
| 2026-05-05 12:24 | 31.43340 | 121.06087 | 2014 ft | 192 kts | 76° |
| 2026-05-05 12:24 | 31.43783 | 121.07569 | 2012 ft | 193 kts | 76° |
| 2026-05-05 12:25 | 31.44225 | 121.09046 | 2014 ft | 192 kts | 76° |
| 2026-05-05 12:25 | 31.44667 | 121.10530 | 2014 ft | 194 kts | 76° |
| 2026-05-05 12:25 | 31.44979 | 121.12043 | 2016 ft | 190 kts | 90° |
| 2026-05-05 12:25 | 31.45026 | 121.13263 | 2014 ft | 188 kts | 95° |
| 2026-05-05 12:26 | 31.45021 | 121.14720 | 2013 ft | 186 kts | 95° |
| 2026-05-05 12:26 | 31.45014 | 121.16231 | 2013 ft | 185 kts | 95° |
| 2026-05-05 12:26 | 31.45011 | 121.17739 | 2014 ft | 185 kts | 96° |
| 2026-05-05 12:26 | 31.45007 | 121.19253 | 2020 ft | 187 kts | 96° |
| 2026-05-05 12:27 | 31.45006 | 121.20774 | 2017 ft | 187 kts | 96° |
| 2026-05-05 12:27 | 31.45007 | 121.22299 | 1944 ft | 188 kts | 96° |
| 2026-05-05 12:27 | 31.45006 | 121.23816 | 1831 ft | 185 kts | 96° |
| 2026-05-05 12:27 | 31.45005 | 121.25325 | 1812 ft | 186 kts | 96° |
| 2026-05-05 12:28 | 31.45005 | 121.26844 | 1820 ft | 187 kts | 96° |
| 2026-05-05 12:28 | 31.45005 | 121.28370 | 1819 ft | 188 kts | 96° |
| 2026-05-05 12:28 | 31.44996 | 121.29898 | 1819 ft | 186 kts | 99° |
| 2026-05-05 12:28 | 31.44670 | 121.31306 | 1815 ft | 176 kts | 128° |
| 2026-05-05 12:29 | 31.43732 | 121.32089 | 1824 ft | 165 kts | 167° |
| 2026-05-05 12:29 | 31.42599 | 121.32296 | 1830 ft | 165 kts | 175° |
| 2026-05-05 12:29 | 31.41469 | 121.32393 | 1843 ft | 163 kts | 176° |
| 2026-05-05 12:29 | 31.40327 | 121.32490 | 1827 ft | 164 kts | 175° |
| 2026-05-05 12:30 | 31.39180 | 121.32568 | 1818 ft | 165 kts | 177° |
| 2026-05-05 12:30 | 31.38422 | 121.32608 | 1820 ft | 166 kts | 178° |
| 2026-05-05 12:30 | 31.37268 | 121.32670 | 1818 ft | 167 kts | 178° |
| 2026-05-05 12:30 | 31.36106 | 121.32734 | 1818 ft | 167 kts | 178° |
| 2026-05-05 12:31 | 31.34947 | 121.32799 | 1814 ft | 166 kts | 177° |
| 2026-05-05 12:31 | 31.33849 | 121.32861 | 1800 ft | 151 kts | 177° |
| 2026-05-05 12:31 | 31.32481 | 121.32937 | 1818 ft | 147 kts | 177° |
| 2026-05-05 12:31 | 31.31811 | 121.32976 | 1811 ft | 138 kts | 176° |
| 2026-05-05 12:32 | 31.30899 | 121.33026 | 1803 ft | 126 kts | 177° |
| 2026-05-05 12:32 | 31.30036 | 121.33071 | 1673 ft | 124 kts | 177° |
| 2026-05-05 12:32 | 31.29184 | 121.33115 | 1503 ft | 125 kts | 176° |
| 2026-05-05 12:32 | 31.28311 | 121.33163 | 1361 ft | 125 kts | 176° |
| 2026-05-05 12:33 | 31.27448 | 121.33212 | 1204 ft | 125 kts | 178° |
| 2026-05-05 12:33 | 31.26581 | 121.33257 | 1024 ft | 124 kts | 177° |
| 2026-05-05 12:33 | 31.25722 | 121.33303 | 865 ft | 124 kts | 176° |
| 2026-05-05 12:33 | 31.24863 | 121.33349 | 705 ft | 124 kts | 174° |
| 2026-05-05 12:34 | 31.24001 | 121.33398 | 551 ft | 124 kts | 174° |
| 2026-05-05 12:34 | 31.23140 | 121.33449 | 357 ft | 125 kts | 176° |
| 2026-05-05 12:34 | 31.22270 | 121.33496 | 225 ft | 129 kts | 175° |
| 2026-05-05 12:34 | 31.21394 | 121.33543 | 89 ft | 125 kts | 175° |
| 2026-05-05 12:35 | 31.20563 | 121.33587 | 27 ft | 122 kts | 175° |
| 2026-05-05 12:35 | 31.19938 | 121.33627 | 28 ft | 78 kts | 170° |
| 2026-05-05 12:35 | 31.19591 | 121.33641 | 27 ft | 28 kts | 179° |
| 2026-05-05 12:35 | 31.19459 | 121.33632 | 27 ft | 20 kts | 192° |
| 2026-05-05 12:36 | 31.19327 | 121.33585 | 28 ft | 21 kts | 203° |
| 2026-05-05 12:36 | 31.19208 | 121.33520 | 28 ft | 14 kts | 205° |
| 2026-05-05 12:36 | 31.19134 | 121.33470 | 29 ft | 8 kts | 230° |
| 2026-05-05 12:36 | 31.19126 | 121.33422 | 31 ft | 6 kts | 261° |
| 2026-05-05 12:37 | 31.19116 | 121.33313 | 27 ft | 36 kts | 268° |
| 2026-05-05 12:37 | 31.19108 | 121.33121 | 29 ft | 14 kts | 273° |
| 2026-05-05 12:37 | 31.19132 | 121.33095 | 31 ft | 4 kts | 356° |
| 2026-05-05 12:37 | 31.19307 | 121.33085 | 28 ft | 48 kts | 358° |
| 2026-05-05 12:38 | 31.19575 | 121.33038 | 29 ft | 15 kts | 310° |
| 2026-05-05 12:38 | 31.19583 | 121.32954 | 29 ft | 11 kts | 269° |
| 2026-05-05 12:38 | 31.19576 | 121.32778 | 25 ft | 31 kts | 268° |
| 2026-05-05 12:38 | 31.19599 | 121.32673 | 30 ft | 7 kts | 334° |
| 2026-05-05 12:39 | 31.19637 | 121.32663 | 28 ft | 0 kts | 347° |
| 2026-05-05 12:39 | 31.19637 | 121.32662 | 28 ft | 0 kts | 346° |
| 2026-05-05 12:39 | 31.19659 | 121.32655 | 28 ft | 14 kts | 338° |
| 2026-05-05 12:39 | 31.19672 | 121.32616 | 29 ft | 5 kts | 268° |
| 2026-05-05 12:40 | 31.19670 | 121.32560 | 29 ft | 9 kts | 268° |
| 2026-05-05 12:40 | 31.19669 | 121.32546 | 29 ft | 0 kts | 268° |